Time,TemperatureF,DewpointF,PressureIn,WindDirection,WindDirectionDegrees,WindSpeedMPH,WindSpeedGustMPH,Humidity,HourlyPrecipIn,Conditions,Clouds,dailyrainin,SoftwareType,DateUTC
2013-08-05 00:00:00,77.4,77.4,29.89,South,175,0.0,0.0,100,0.00,,---,0.44,VWS V14.01,2013-08-05 04:00:00,
2013-08-05 00:01:00,77.4,77.4,29.90,South,175,0.0,0.0,100,0.00,,---,0.44,VWS V14.01,2013-08-05 04:01:00,
2013-08-05 00:02:00,77.4,77.4,29.90,South,175,0.0,0.0,100,0.00,,---,0.44,VWS V14.01,2013-08-05 04:02:00,
2013-08-05 00:07:00,77.2,77.2,29.90,South,175,0.0,0.0,100,0.00,,---,0.00,VWS V14.01,2013-08-05 04:07:00,
2013-08-05 00:12:00,77.2,77.2,29.90,South,175,0.0,0.0,100,0.00,,---,0.00,VWS V14.01,2013-08-05 04:12:00,
2013-08-05 00:17:00,77.2,77.2,29.90,South,175,0.0,0.0,100,0.00,,---,0.00,VWS V14.01,2013-08-05 04:17:00,
2013-08-05 00:22:00,77.2,77.2,29.90,South,175,0.0,0.0,100,0.00,,---,0.00,VWS V14.01,2013-08-05 04:22:00,
2013-08-05 00:27:00,77.2,77.2,29.90,South,175,0.0,0.0,100,0.00,,---,0.00,VWS V14.01,2013-08-05 04:27:00,
2013-08-05 00:30:00,77.2,77.2,29.90,South,175,0.0,0.0,100,0.00,,---,0.44,VWS V14.01,2013-08-05 04:30:00,
2013-08-05 00:32:00,77.2,77.2,29.90,South,175,0.0,0.0,100,0.00,,---,0.00,VWS V14.01,2013-08-05 04:32:00,
2013-08-05 00:37:00,77.2,77.2,29.90,South,175,0.0,0.0,100,0.00,,---,0.00,VWS V14.01,2013-08-05 04:37:00,
2013-08-05 00:42:00,77.2,77.2,29.90,South,175,0.0,0.0,100,0.00,,---,0.00,VWS V14.01,2013-08-05 04:42:00,
2013-08-05 00:47:00,77.2,77.2,29.90,South,175,0.0,0.0,100,0.00,,---,0.00,VWS V14.01,2013-08-05 04:47:00,
2013-08-05 00:52:00,76.7,76.7,29.90,South,175,0.0,0.0,100,0.00,,---,0.00,VWS V14.01,2013-08-05 04:52:00,
2013-08-05 00:57:00,76.7,76.7,29.90,South,175,0.0,0.0,100,0.00,,---,0.00,VWS V14.01,2013-08-05 04:57:00,
2013-08-05 01:00:00,77.2,77.2,29.90,South,175,0.0,0.0,100,0.00,,---,0.44,VWS V14.01,2013-08-05 05:00:00,
2013-08-05 01:02:00,76.7,76.7,29.90,South,175,0.0,0.0,100,0.00,,---,0.00,VWS V14.01,2013-08-05 05:02:00,
2013-08-05 01:07:00,76.7,76.7,29.90,South,175,0.0,0.0,100,0.00,,---,0.00,VWS V14.01,2013-08-05 05:07:00,
2013-08-05 01:12:00,76.7,76.7,29.90,South,175,0.0,0.0,100,0.00,,---,0.00,VWS V14.01,2013-08-05 05:12:00,
2013-08-05 01:17:00,76.7,76.7,29.90,South,175,0.0,0.0,100,0.00,,---,0.00,VWS V14.01,2013-08-05 05:17:00,
2013-08-05 01:22:00,76.7,76.7,29.89,South,175,0.0,0.0,100,0.00,,---,0.00,VWS V14.01,2013-08-05 05:22:00,
2013-08-05 01:27:00,76.7,76.7,29.89,South,175,0.0,0.0,100,0.00,,---,0.00,VWS V14.01,2013-08-05 05:27:00,
2013-08-05 01:30:00,77.2,77.2,29.90,South,175,0.0,0.0,100,0.00,,---,0.00,VWS V14.01,2013-08-05 05:30:00,
2013-08-05 01:33:00,76.7,76.7,29.89,South,175,0.0,0.0,100,0.00,,---,0.00,VWS V14.01,2013-08-05 05:33:00,
2013-08-05 01:38:00,76.7,76.7,29.89,South,175,0.0,0.0,100,0.00,,---,0.00,VWS V14.01,2013-08-05 05:38:00,
2013-08-05 01:43:00,76.7,76.7,29.89,South,175,0.0,0.0,100,0.00,,---,0.00,VWS V14.01,2013-08-05 05:43:00,
2013-08-05 01:48:00,76.7,76.7,29.89,South,175,0.0,0.0,100,0.00,,---,0.00,VWS V14.01,2013-08-05 05:48:00,
2013-08-05 01:53:00,76.7,76.7,29.88,South,175,0.0,0.0,100,0.00,,---,0.00,VWS V14.01,2013-08-05 05:53:00,
2013-08-05 01:58:00,76.7,76.7,29.88,South,175,0.0,0.0,100,0.00,,---,0.00,VWS V14.01,2013-08-05 05:58:00,
2013-08-05 02:00:00,76.7,76.7,29.90,South,175,0.0,0.0,100,0.00,,---,0.00,VWS V14.01,2013-08-05 06:00:00,
2013-08-05 02:03:00,76.7,76.7,29.88,South,175,0.0,0.0,100,0.00,,---,0.00,VWS V14.01,2013-08-05 06:03:00,
2013-08-05 02:08:00,76.0,76.0,29.88,South,175,0.0,0.0,100,0.00,,---,0.00,VWS V14.01,2013-08-05 06:08:00,
2013-08-05 02:13:00,76.0,76.0,29.88,South,175,0.0,0.0,100,0.00,,---,0.00,VWS V14.01,2013-08-05 06:13:00,
2013-08-05 02:18:00,75.8,75.8,29.88,South,175,0.0,0.0,100,0.00,,---,0.00,VWS V14.01,2013-08-05 06:18:00,
2013-08-05 02:23:00,75.6,75.6,29.88,South,175,0.0,0.0,100,0.00,,---,0.00,VWS V14.01,2013-08-05 06:23:00,
2013-08-05 02:28:00,75.6,75.6,29.88,South,175,0.0,0.0,100,0.00,,---,0.00,VWS V14.01,2013-08-05 06:28:00,
2013-08-05 02:30:00,76.7,76.7,29.89,South,175,0.0,0.0,100,0.00,,---,0.00,VWS V14.01,2013-08-05 06:30:00,
2013-08-05 02:33:00,75.4,75.4,29.88,South,175,0.0,0.0,100,0.00,,---,0.00,VWS V14.01,2013-08-05 06:33:00,
2013-08-05 02:38:00,75.4,75.4,29.87,South,175,0.0,0.0,100,0.00,,---,0.00,VWS V14.01,2013-08-05 06:38:00,
2013-08-05 02:43:00,75.4,75.4,29.87,South,175,0.0,0.0,100,0.00,,---,0.00,VWS V14.01,2013-08-05 06:43:00,
2013-08-05 02:48:00,75.4,75.4,29.87,South,175,0.0,0.0,100,0.00,,---,0.00,VWS V14.01,2013-08-05 06:48:00,
2013-08-05 02:53:00,75.4,75.4,29.87,South,175,0.0,0.0,100,0.00,,---,0.00,VWS V14.01,2013-08-05 06:53:00,
2013-08-05 02:58:00,75.4,75.4,29.87,South,175,0.0,0.0,100,0.00,,---,0.00,VWS V14.01,2013-08-05 06:58:00,
2013-08-05 03:00:00,76.0,76.0,29.88,South,175,0.0,0.0,100,0.00,,---,0.00,VWS V14.01,2013-08-05 07:00:00,
2013-08-05 03:02:00,75.4,75.4,29.87,South,175,0.0,0.0,100,0.00,,---,0.00,VWS V14.01,2013-08-05 07:02:00,
2013-08-05 03:08:00,75.4,75.4,29.86,South,175,0.0,0.0,100,0.00,,---,0.00,VWS V14.01,2013-08-05 07:08:00,
2013-08-05 03:13:00,75.4,75.4,29.86,South,175,0.0,0.0,100,0.00,,---,0.00,VWS V14.01,2013-08-05 07:13:00,
2013-08-05 03:18:00,75.4,75.4,29.86,South,175,0.0,0.0,100,0.00,,---,0.00,VWS V14.01,2013-08-05 07:18:00,
2013-08-05 03:23:00,75.4,75.4,29.85,South,175,0.0,0.0,100,0.00,,---,0.00,VWS V14.01,2013-08-05 07:23:00,
2013-08-05 03:28:00,75.4,75.4,29.85,South,175,0.0,0.0,100,0.00,,---,0.00,VWS V14.01,2013-08-05 07:28:00,
2013-08-05 03:30:00,75.4,75.4,29.87,South,175,0.0,0.0,100,0.00,,---,0.00,VWS V14.01,2013-08-05 07:30:00,
2013-08-05 03:32:00,75.4,75.4,29.85,South,175,0.0,0.0,100,0.00,,---,0.00,VWS V14.01,2013-08-05 07:32:00,
2013-08-05 03:38:00,75.3,75.3,29.85,South,175,0.0,0.0,100,0.00,,---,0.00,VWS V14.01,2013-08-05 07:38:00,
2013-08-05 03:43:00,75.3,75.3,29.85,South,175,0.0,0.0,100,0.00,,---,0.00,VWS V14.01,2013-08-05 07:43:00,
2013-08-05 03:48:00,75.3,75.3,29.85,South,175,0.0,0.0,100,0.00,,---,0.00,VWS V14.01,2013-08-05 07:48:00,
2013-08-05 03:53:00,75.3,75.3,29.85,South,175,0.0,0.0,100,0.00,,---,0.00,VWS V14.01,2013-08-05 07:53:00,
2013-08-05 03:58:00,75.3,75.3,29.85,South,175,0.0,0.0,100,0.00,,---,0.00,VWS V14.01,2013-08-05 07:58:00,
2013-08-05 04:00:00,75.4,75.4,29.86,South,175,0.0,0.0,100,0.00,,---,0.00,VWS V14.01,2013-08-05 08:00:00,
2013-08-05 04:03:00,75.3,75.3,29.85,South,175,0.0,0.0,100,0.00,,---,0.00,VWS V14.01,2013-08-05 08:03:00,
2013-08-05 04:08:00,75.3,75.3,29.85,South,175,0.0,0.0,100,0.00,,---,0.00,VWS V14.01,2013-08-05 08:08:00,
2013-08-05 04:13:00,75.3,75.3,29.85,South,175,0.0,0.0,100,0.00,,---,0.00,VWS V14.01,2013-08-05 08:13:00,
2013-08-05 04:18:00,75.3,75.3,29.85,South,175,0.0,0.0,100,0.00,,---,0.00,VWS V14.01,2013-08-05 08:18:00,
2013-08-05 04:23:00,75.3,75.3,29.85,South,175,0.0,0.0,100,0.00,,---,0.00,VWS V14.01,2013-08-05 08:23:00,
2013-08-05 04:28:00,75.3,75.3,29.85,South,175,0.0,0.0,100,0.00,,---,0.00,VWS V14.01,2013-08-05 08:28:00,
2013-08-05 04:30:00,75.3,75.3,29.85,South,175,0.0,0.0,100,0.00,,---,0.00,VWS V14.01,2013-08-05 08:30:00,
2013-08-05 04:33:00,75.3,75.3,29.85,South,175,0.0,0.0,100,0.00,,---,0.00,VWS V14.01,2013-08-05 08:33:00,
2013-08-05 04:38:00,75.3,75.3,29.85,South,175,0.0,0.0,100,0.00,,---,0.00,VWS V14.01,2013-08-05 08:38:00,
2013-08-05 04:43:00,75.3,75.3,29.85,South,175,0.0,0.0,100,0.00,,---,0.00,VWS V14.01,2013-08-05 08:43:00,
2013-08-05 04:48:00,75.3,75.3,29.85,South,175,0.0,0.0,100,0.00,,---,0.00,VWS V14.01,2013-08-05 08:48:00,
2013-08-05 04:53:00,75.3,75.3,29.85,South,175,0.0,0.0,100,0.00,,---,0.00,VWS V14.01,2013-08-05 08:53:00,
2013-08-05 04:59:00,75.3,75.3,29.85,South,175,0.0,0.0,100,0.00,,---,0.00,VWS V14.01,2013-08-05 08:59:00,
2013-08-05 05:00:00,75.3,75.3,29.85,South,175,0.0,0.0,100,0.00,,---,0.00,VWS V14.01,2013-08-05 09:00:00,
2013-08-05 05:03:00,75.3,75.3,29.85,South,175,0.0,0.0,100,0.00,,---,0.00,VWS V14.01,2013-08-05 09:03:00,
2013-08-05 05:09:00,75.3,75.3,29.85,South,175,0.0,0.0,100,0.00,,---,0.00,VWS V14.01,2013-08-05 09:09:00,
2013-08-05 05:14:00,75.3,75.3,29.85,South,175,0.0,0.0,100,0.00,,---,0.00,VWS V14.01,2013-08-05 09:14:00,
2013-08-05 05:19:00,75.3,75.3,29.85,South,175,0.0,0.0,100,0.00,,---,0.00,VWS V14.01,2013-08-05 09:19:00,
2013-08-05 05:24:00,75.3,75.3,29.85,South,175,0.0,0.0,100,0.00,,---,0.00,VWS V14.01,2013-08-05 09:24:00,
2013-08-05 05:29:00,75.3,75.3,29.85,South,175,0.0,0.0,100,0.00,,---,0.00,VWS V14.01,2013-08-05 09:29:00,
2013-08-05 05:30:00,75.3,75.3,29.85,South,175,0.0,0.0,100,0.00,,---,0.00,VWS V14.01,2013-08-05 09:30:00,
2013-08-05 05:34:00,75.3,75.3,29.85,South,175,0.0,0.0,100,0.00,,---,0.00,VWS V14.01,2013-08-05 09:34:00,
2013-08-05 05:39:00,75.3,75.3,29.85,South,175,0.0,0.0,100,0.00,,---,0.00,VWS V14.01,2013-08-05 09:39:00,
2013-08-05 05:45:00,75.3,75.3,29.85,South,175,0.0,0.0,100,0.00,,---,0.00,VWS V14.01,2013-08-05 09:45:00,
2013-08-05 05:50:00,75.3,75.3,29.85,South,175,0.0,0.0,100,0.00,,---,0.00,VWS V14.01,2013-08-05 09:50:00,
2013-08-05 05:55:00,75.3,75.3,29.85,South,175,0.0,0.0,100,0.00,,---,0.00,VWS V14.01,2013-08-05 09:55:00,
2013-08-05 06:00:00,75.3,75.3,29.85,South,175,0.0,0.0,100,0.00,,---,0.00,VWS V14.01,2013-08-05 10:00:00,
2013-08-05 06:05:00,74.9,74.9,29.86,South,175,0.0,0.0,100,0.00,,---,0.00,VWS V14.01,2013-08-05 10:05:00,
2013-08-05 06:10:00,74.9,74.9,29.86,South,175,0.0,0.0,100,0.00,,---,0.00,VWS V14.01,2013-08-05 10:10:00,
2013-08-05 06:15:00,74.9,74.9,29.86,South,175,0.0,0.0,100,0.00,,---,0.00,VWS V14.01,2013-08-05 10:15:00,
2013-08-05 06:20:00,74.9,74.9,29.86,South,175,0.0,0.0,100,0.00,,---,0.00,VWS V14.01,2013-08-05 10:20:00,
2013-08-05 06:25:00,74.9,74.9,29.86,South,175,0.0,0.0,100,0.00,,---,0.00,VWS V14.01,2013-08-05 10:25:00,
2013-08-05 06:30:00,74.9,74.9,29.86,South,175,0.0,0.0,100,0.00,,---,0.00,VWS V14.01,2013-08-05 10:30:00,
2013-08-05 06:35:00,74.9,74.9,29.87,South,175,0.0,0.0,100,0.00,,---,0.00,VWS V14.01,2013-08-05 10:35:00,
2013-08-05 06:40:00,74.9,74.9,29.87,South,175,0.0,0.0,100,0.00,,---,0.00,VWS V14.01,2013-08-05 10:40:00,
2013-08-05 06:45:00,74.9,74.9,29.87,South,175,0.0,0.0,100,0.00,,---,0.00,VWS V14.01,2013-08-05 10:45:00,
2013-08-05 06:50:00,74.9,74.9,29.87,South,175,0.0,0.0,100,0.00,,---,0.00,VWS V14.01,2013-08-05 10:50:00,
2013-08-05 06:55:00,74.9,74.9,29.87,South,175,0.0,0.0,100,0.00,,---,0.00,VWS V14.01,2013-08-05 10:55:00,
2013-08-05 07:00:00,74.9,74.9,29.87,South,175,0.0,0.0,100,0.00,,---,0.00,VWS V14.01,2013-08-05 11:00:00,
2013-08-05 07:06:00,74.9,74.9,29.88,South,175,0.0,0.0,100,0.00,,---,0.00,VWS V14.01,2013-08-05 11:06:00,
2013-08-05 07:11:00,74.9,74.9,29.88,South,175,0.0,0.0,100,0.00,,---,0.00,VWS V14.01,2013-08-05 11:11:00,
2013-08-05 07:15:00,74.9,74.9,29.88,South,175,0.0,0.0,100,0.00,,---,0.00,VWS V14.01,2013-08-05 11:15:00,
2013-08-05 07:20:00,74.9,74.9,29.88,South,175,0.0,0.0,100,0.00,,---,0.00,VWS V14.01,2013-08-05 11:20:00,
2013-08-05 07:25:00,74.9,74.9,29.88,South,175,0.0,0.0,100,0.00,,---,0.00,VWS V14.01,2013-08-05 11:25:00,
2013-08-05 07:30:00,74.9,74.9,29.87,South,175,0.0,0.0,100,0.00,,---,0.00,VWS V14.01,2013-08-05 11:30:00,
2013-08-05 07:31:00,74.9,74.9,29.88,South,175,0.0,0.0,100,0.00,,---,0.00,VWS V14.01,2013-08-05 11:31:00,
2013-08-05 07:35:00,74.9,74.9,29.88,South,175,0.0,0.0,100,0.00,,---,0.00,VWS V14.01,2013-08-05 11:35:00,
2013-08-05 07:41:00,74.9,74.9,29.88,South,175,0.0,0.0,100,0.00,,---,0.00,VWS V14.01,2013-08-05 11:41:00,
2013-08-05 07:45:00,74.9,74.9,29.88,South,175,0.0,0.0,100,0.00,,---,0.00,VWS V14.01,2013-08-05 11:45:00,
2013-08-05 07:51:00,74.9,74.9,29.88,South,175,0.0,0.0,100,0.00,,---,0.00,VWS V14.01,2013-08-05 11:51:00,
2013-08-05 07:56:00,74.9,74.9,29.88,South,175,0.0,0.0,100,0.00,,---,0.00,VWS V14.01,2013-08-05 11:56:00,
2013-08-05 08:00:00,74.9,74.9,29.88,South,175,0.0,0.0,100,0.00,,---,0.00,VWS V14.01,2013-08-05 12:00:00,
2013-08-05 08:02:00,74.9,74.9,29.88,South,175,0.0,0.0,100,0.00,,---,0.00,VWS V14.01,2013-08-05 12:02:00,
2013-08-05 08:07:00,76.5,76.5,29.89,South,175,0.0,0.0,100,0.00,,---,0.00,VWS V14.01,2013-08-05 12:07:00,
2013-08-05 08:12:00,76.8,76.8,29.89,South,175,0.0,0.0,100,0.00,,---,0.00,VWS V14.01,2013-08-05 12:12:00,
2013-08-05 08:17:00,77.0,77.0,29.89,South,175,0.0,0.0,100,0.00,,---,0.00,VWS V14.01,2013-08-05 12:17:00,
2013-08-05 08:22:00,77.2,77.2,29.89,South,175,0.0,0.0,100,0.00,,---,0.00,VWS V14.01,2013-08-05 12:22:00,
2013-08-05 08:27:00,77.4,77.4,29.89,South,175,0.0,0.0,100,0.00,,---,0.00,VWS V14.01,2013-08-05 12:27:00,
2013-08-05 08:30:00,74.9,74.9,29.88,South,175,0.0,0.0,100,0.00,,---,0.00,VWS V14.01,2013-08-05 12:30:00,
2013-08-05 08:32:00,77.7,77.7,29.89,South,175,0.0,0.0,100,0.00,,---,0.00,VWS V14.01,2013-08-05 12:32:00,
2013-08-05 08:37:00,78.1,78.1,29.89,South,175,0.0,0.0,100,0.00,,---,0.00,VWS V14.01,2013-08-05 12:37:00,
2013-08-05 08:42:00,78.5,78.5,29.89,South,175,0.0,0.0,100,0.00,,---,0.00,VWS V14.01,2013-08-05 12:42:00,
2013-08-05 08:47:00,78.6,78.6,29.89,South,175,0.0,0.0,100,0.00,,---,0.00,VWS V14.01,2013-08-05 12:47:00,
2013-08-05 08:52:00,78.8,78.8,29.89,South,175,0.0,0.0,100,0.00,,---,0.00,VWS V14.01,2013-08-05 12:52:00,
2013-08-05 08:57:00,79.2,79.2,29.89,South,175,0.0,0.0,100,0.00,,---,0.00,VWS V14.01,2013-08-05 12:57:00,
2013-08-05 09:00:00,74.9,74.9,29.89,South,175,0.0,0.0,100,0.00,,---,0.00,VWS V14.01,2013-08-05 13:00:00,
2013-08-05 09:02:00,79.4,79.4,29.89,South,175,0.0,0.0,100,0.00,,---,0.00,VWS V14.01,2013-08-05 13:02:00,
2013-08-05 09:07:00,79.4,79.4,29.89,South,175,0.0,0.0,100,0.00,,---,0.00,VWS V14.01,2013-08-05 13:07:00,
2013-08-05 09:13:00,79.4,79.4,29.89,South,175,0.0,0.0,100,0.00,,---,0.00,VWS V14.01,2013-08-05 13:13:00,
2013-08-05 09:18:00,79.4,79.4,29.89,South,175,0.0,0.0,100,0.00,,---,0.00,VWS V14.01,2013-08-05 13:18:00,
2013-08-05 09:23:00,79.4,79.4,29.89,South,176,0.0,0.0,100,0.00,,---,0.00,VWS V14.01,2013-08-05 13:23:00,
2013-08-05 09:27:00,80.5,80.5,29.89,WSW,253,0.0,0.0,100,0.00,,---,0.00,VWS V14.01,2013-08-05 13:27:00,
2013-08-05 09:30:00,77.9,77.9,29.89,South,175,0.0,0.0,100,0.00,,---,0.00,VWS V14.01,2013-08-05 13:30:00,
2013-08-05 09:33:00,80.9,80.9,29.89,WNW,287,0.0,0.0,100,0.00,,---,0.00,VWS V14.01,2013-08-05 13:33:00,
2013-08-05 09:39:00,81.2,81.2,29.89,WNW,287,0.0,0.0,100,0.00,,---,0.00,VWS V14.01,2013-08-05 13:39:00,
2013-08-05 09:44:00,81.6,81.6,29.89,SW,222,0.0,0.0,100,0.00,,---,0.00,VWS V14.01,2013-08-05 13:44:00,
2013-08-05 09:48:00,82.2,82.2,29.89,SW,222,0.0,0.0,100,0.00,,---,0.00,VWS V14.01,2013-08-05 13:48:00,
2013-08-05 09:54:00,83.0,83.0,29.89,SW,222,0.0,0.0,100,0.00,,---,0.00,VWS V14.01,2013-08-05 13:54:00,
2013-08-05 09:59:00,83.0,83.0,29.89,SW,222,0.0,2.0,100,0.00,,---,0.00,VWS V14.01,2013-08-05 13:59:00,
2013-08-05 10:00:00,79.4,79.4,29.89,South,175,0.0,0.0,100,0.00,,---,0.00,VWS V14.01,2013-08-05 14:00:00,
2013-08-05 10:04:00,83.4,82.5,29.89,SW,222,0.0,2.0,97,0.00,,---,0.00,VWS V14.01,2013-08-05 14:04:00,
2013-08-05 10:09:00,83.4,80.2,29.89,SW,234,0.0,3.0,90,0.00,,---,0.00,VWS V14.01,2013-08-05 14:09:00,
2013-08-05 10:15:00,84.1,79.5,29.89,SW,234,0.0,3.0,86,0.00,,---,0.00,VWS V14.01,2013-08-05 14:15:00,
2013-08-05 10:20:00,84.9,79.9,29.89,SW,232,0.0,3.0,85,0.00,,---,0.00,VWS V14.01,2013-08-05 14:20:00,
2013-08-05 10:25:00,85.3,78.4,29.89,SW,232,0.0,3.0,80,0.00,,---,0.00,VWS V14.01,2013-08-05 14:25:00,
2013-08-05 10:30:00,85.7,78.8,29.89,SSW,213,0.0,3.0,80,0.00,,---,0.00,VWS V14.01,2013-08-05 14:30:00,
2013-08-05 10:35:00,86.1,79.2,29.89,SSW,209,0.0,0.0,80,0.00,,---,0.00,VWS V14.01,2013-08-05 14:35:00,
2013-08-05 10:40:00,86.1,78.4,29.89,South,174,0.0,0.0,78,0.00,,---,0.00,VWS V14.01,2013-08-05 14:40:00,
2013-08-05 10:46:00,86.3,79.4,29.89,SW,227,0.0,3.0,80,0.00,,---,0.00,VWS V14.01,2013-08-05 14:46:00,
2013-08-05 10:51:00,86.3,79.0,29.89,ENE,71,0.0,3.0,79,0.00,,---,0.00,VWS V14.01,2013-08-05 14:51:00,
2013-08-05 10:56:00,86.3,78.6,29.89,ENE,71,0.0,3.0,78,0.00,,---,0.00,VWS V14.01,2013-08-05 14:56:00,
2013-08-05 11:00:00,83.4,82.5,29.89,SW,222,0.0,2.0,97,0.00,,---,0.00,VWS V14.01,2013-08-05 15:00:00,
2013-08-05 11:01:00,86.5,78.8,29.89,ENE,71,0.0,3.0,78,0.00,,---,0.00,VWS V14.01,2013-08-05 15:01:00,
2013-08-05 11:07:00,86.5,78.8,29.89,SW,217,0.0,0.0,78,0.01,,---,0.01,VWS V14.01,2013-08-05 15:07:00,
2013-08-05 11:12:00,86.5,78.4,29.89,SSW,209,0.0,0.0,77,0.01,,---,0.01,VWS V14.01,2013-08-05 15:12:00,
2013-08-05 11:17:00,86.5,78.4,29.89,SW,219,0.0,0.0,77,0.01,,---,0.01,VWS V14.01,2013-08-05 15:17:00,
2013-08-05 11:21:00,87.8,78.5,29.89,SW,219,0.0,0.0,74,0.01,,---,0.01,VWS V14.01,2013-08-05 15:21:00,
2013-08-05 11:26:00,88.4,78.7,29.89,WSW,253,0.0,3.0,73,0.01,,---,0.01,VWS V14.01,2013-08-05 15:26:00,
2013-08-05 11:30:00,86.1,79.2,29.89,SSW,209,0.0,3.0,80,0.00,,---,0.00,VWS V14.01,2013-08-05 15:30:00,
2013-08-05 11:32:00,88.8,79.4,29.89,WSW,248,0.0,3.0,74,0.01,,---,0.01,VWS V14.01,2013-08-05 15:32:00,
2013-08-05 11:37:00,89.5,78.9,29.89,WSW,237,0.0,0.0,71,0.01,,---,0.01,VWS V14.01,2013-08-05 15:37:00,
2013-08-05 11:42:00,89.9,77.9,29.89,WSW,239,0.0,3.0,68,0.01,,---,0.01,VWS V14.01,2013-08-05 15:42:00,
2013-08-05 11:47:00,90.1,79.0,29.89,SW,236,0.0,3.0,70,0.01,,---,0.01,VWS V14.01,2013-08-05 15:47:00,
2013-08-05 11:52:00,90.1,77.7,29.88,SW,226,0.0,5.0,67,0.01,,---,0.01,VWS V14.01,2013-08-05 15:52:00,
2013-08-05 11:57:00,90.1,78.1,29.88,SW,227,0.0,5.0,68,0.01,,---,0.01,VWS V14.01,2013-08-05 15:57:00,
2013-08-05 12:00:00,86.5,78.8,29.89,SW,233,0.0,3.0,78,0.00,,---,0.00,VWS V14.01,2013-08-05 16:00:00,
2013-08-05 12:02:00,89.7,78.6,29.88,SW,226,0.0,5.0,70,0.01,,---,0.01,VWS V14.01,2013-08-05 16:02:00,
2013-08-05 12:08:00,89.7,79.1,29.89,SW,227,0.0,0.0,71,0.01,,---,0.01,VWS V14.01,2013-08-05 16:08:00,
2013-08-05 12:13:00,89.7,78.6,29.89,SW,227,0.0,1.0,70,0.01,,---,0.01,VWS V14.01,2013-08-05 16:13:00,
2013-08-05 12:18:00,89.3,79.9,29.89,SW,227,0.0,1.0,74,0.01,,---,0.01,VWS V14.01,2013-08-05 16:18:00,
2013-08-05 12:23:00,88.8,78.6,29.88,SW,227,0.0,1.0,72,0.01,,---,0.01,VWS V14.01,2013-08-05 16:23:00,
2013-08-05 12:28:00,89.0,77.9,29.88,SW,227,0.0,1.0,70,0.01,,---,0.01,VWS V14.01,2013-08-05 16:28:00,
2013-08-05 12:30:00,89.0,78.4,29.89,WSW,237,0.0,5.0,71,0.01,,---,0.01,VWS V14.01,2013-08-05 16:30:00,
2013-08-05 12:33:00,89.5,77.6,29.88,SW,226,0.0,1.0,68,0.01,,---,0.01,VWS V14.01,2013-08-05 16:33:00,
2013-08-05 12:38:00,89.9,77.5,29.88,WSW,241,0.0,3.0,67,0.00,,---,0.01,VWS V14.01,2013-08-05 16:38:00,
2013-08-05 12:43:00,89.9,77.5,29.88,WSW,257,0.0,3.0,67,0.00,,---,0.01,VWS V14.01,2013-08-05 16:43:00,
2013-08-05 12:48:00,89.7,77.7,29.88,WSW,257,0.0,3.0,68,0.00,,---,0.01,VWS V14.01,2013-08-05 16:48:00,
2013-08-05 12:53:00,89.0,78.4,29.87,WSW,257,0.0,3.0,71,0.00,,---,0.01,VWS V14.01,2013-08-05 16:53:00,
2013-08-05 12:58:00,87.6,77.9,29.87,WSW,257,4.0,4.0,73,0.00,,---,0.01,VWS V14.01,2013-08-05 16:58:00,
2013-08-05 13:00:00,89.7,78.6,29.89,SW,227,0.0,5.0,70,0.01,,---,0.01,VWS V14.01,2013-08-05 17:00:00,
2013-08-05 13:03:00,86.5,76.4,29.87,SW,236,2.0,5.0,72,0.00,,---,0.01,VWS V14.01,2013-08-05 17:03:00,
2013-08-05 13:08:00,85.9,76.2,29.87,South,191,1.0,2.0,73,0.00,,---,0.01,VWS V14.01,2013-08-05 17:08:00,
2013-08-05 13:13:00,86.1,76.4,29.87,SW,224,0.0,5.0,73,0.00,,---,0.01,VWS V14.01,2013-08-05 17:13:00,
2013-08-05 13:18:00,86.7,76.2,29.87,SW,217,0.0,5.0,71,0.00,,---,0.01,VWS V14.01,2013-08-05 17:18:00,
2013-08-05 13:23:00,88.0,76.6,29.87,SW,234,0.0,5.0,69,0.00,,---,0.01,VWS V14.01,2013-08-05 17:23:00,
2013-08-05 13:28:00,88.0,76.6,29.87,SW,230,0.0,5.0,69,0.00,,---,0.01,VWS V14.01,2013-08-05 17:28:00,
2013-08-05 13:30:00,89.7,78.6,29.88,SW,226,0.0,1.0,70,0.01,,---,0.01,VWS V14.01,2013-08-05 17:30:00,
2013-08-05 13:33:00,88.6,77.6,29.87,SW,215,0.0,5.0,70,0.00,,---,0.01,VWS V14.01,2013-08-05 17:33:00,
2013-08-05 13:38:00,88.6,77.6,29.87,SSW,208,0.0,0.0,70,0.00,,---,0.01,VWS V14.01,2013-08-05 17:38:00,
2013-08-05 13:43:00,89.0,77.9,29.87,SSE,164,0.0,0.0,70,0.00,,---,0.01,VWS V14.01,2013-08-05 17:43:00,
2013-08-05 13:49:00,88.6,77.1,29.87,ENE,78,0.0,0.0,69,0.00,,---,0.01,VWS V14.01,2013-08-05 17:49:00,
2013-08-05 13:54:00,88.4,76.9,29.85,East,79,0.0,0.0,69,0.00,,---,0.01,VWS V14.01,2013-08-05 17:54:00,
2013-08-05 13:58:00,88.0,76.1,29.85,WNW,291,0.0,1.0,68,0.00,,---,0.01,VWS V14.01,2013-08-05 17:58:00,
2013-08-05 14:00:00,86.3,76.2,29.87,WSW,257,0.0,5.0,72,0.00,,---,0.01,VWS V14.01,2013-08-05 18:00:00,
2013-08-05 14:03:00,87.6,74.8,29.85,WNW,291,0.0,1.0,66,0.00,,---,0.01,VWS V14.01,2013-08-05 18:03:00,
2013-08-05 14:09:00,87.8,74.1,29.84,NNE,25,0.0,0.0,64,0.00,,---,0.01,VWS V14.01,2013-08-05 18:09:00,
2013-08-05 14:14:00,88.2,74.0,29.84,NNE,24,0.0,0.0,63,0.00,,---,0.01,VWS V14.01,2013-08-05 18:14:00,
2013-08-05 14:19:00,89.0,75.2,29.84,NNE,24,0.0,0.0,64,0.00,,---,0.01,VWS V14.01,2013-08-05 18:19:00,
2013-08-05 14:24:00,89.7,77.3,29.84,NNE,24,0.0,0.0,67,0.00,,---,0.01,VWS V14.01,2013-08-05 18:24:00,
2013-08-05 14:29:00,89.7,75.4,29.84,SW,234,0.0,2.0,63,0.00,,---,0.01,VWS V14.01,2013-08-05 18:29:00,
2013-08-05 14:30:00,88.6,77.6,29.87,SW,215,0.0,5.0,70,0.00,,---,0.01,VWS V14.01,2013-08-05 18:30:00,
2013-08-05 14:34:00,90.7,76.4,29.85,South,189,0.0,2.0,63,0.00,,---,0.01,VWS V14.01,2013-08-05 18:34:00,
2013-08-05 14:39:00,90.7,76.4,29.85,South,189,0.0,0.0,63,0.00,,---,0.01,VWS V14.01,2013-08-05 18:39:00,
2013-08-05 14:44:00,90.7,76.4,29.85,South,174,0.0,0.0,63,0.00,,---,0.01,VWS V14.01,2013-08-05 18:44:00,
2013-08-05 14:50:00,90.1,75.8,29.84,South,174,0.0,0.0,63,0.00,,---,0.01,VWS V14.01,2013-08-05 18:50:00,
2013-08-05 14:55:00,90.1,75.8,29.84,South,178,0.0,0.0,63,0.00,,---,0.01,VWS V14.01,2013-08-05 18:55:00,
2013-08-05 15:00:00,90.1,75.8,29.84,South,182,0.0,0.0,63,0.00,,---,0.01,VWS V14.01,2013-08-05 19:00:00,
2013-08-05 15:05:00,91.6,77.2,29.82,SW,222,0.0,0.0,63,0.00,,---,0.01,VWS V14.01,2013-08-05 19:05:00,
2013-08-05 15:10:00,92.7,78.3,29.82,WSW,247,0.0,0.0,63,0.00,,---,0.01,VWS V14.01,2013-08-05 19:10:00,
2013-08-05 15:15:00,92.7,76.3,29.82,SE,145,0.0,6.0,59,0.00,,---,0.01,VWS V14.01,2013-08-05 19:15:00,
2013-08-05 15:20:00,92.7,76.3,29.81,SW,234,0.0,6.0,59,0.00,,---,0.01,VWS V14.01,2013-08-05 19:20:00,
2013-08-05 15:25:00,91.2,74.9,29.81,SW,234,0.0,6.0,59,0.00,,---,0.01,VWS V14.01,2013-08-05 19:25:00,
2013-08-05 15:30:00,91.2,76.4,29.81,NNE,25,0.0,6.0,62,0.00,,---,0.01,VWS V14.01,2013-08-05 19:30:00,
2013-08-05 15:35:00,91.2,76.4,29.81,SW,236,0.0,0.0,62,0.00,,---,0.01,VWS V14.01,2013-08-05 19:35:00,
2013-08-05 15:40:00,91.4,76.6,29.81,SSW,212,0.0,0.0,62,0.00,,---,0.01,VWS V14.01,2013-08-05 19:40:00,
2013-08-05 15:45:00,91.4,76.6,29.81,SSE,148,0.0,2.0,62,0.00,,---,0.01,VWS V14.01,2013-08-05 19:45:00,
2013-08-05 15:51:00,92.1,77.2,29.81,NNE,32,0.0,2.0,62,0.00,,---,0.01,VWS V14.01,2013-08-05 19:51:00,
2013-08-05 15:56:00,91.8,77.4,29.81,NNW,342,0.0,2.0,63,0.00,,---,0.01,VWS V14.01,2013-08-05 19:56:00,
2013-08-05 16:00:00,91.6,77.2,29.82,SW,222,0.0,0.0,63,0.00,,---,0.01,VWS V14.01,2013-08-05 20:00:00,
2013-08-05 16:01:00,91.8,77.4,29.81,SSW,205,0.0,2.0,63,0.00,,---,0.01,VWS V14.01,2013-08-05 20:01:00,
2013-08-05 16:06:00,91.8,77.4,29.82,SW,217,0.0,0.0,63,0.00,,---,0.01,VWS V14.01,2013-08-05 20:06:00,
2013-08-05 16:11:00,91.8,77.9,29.82,WSW,253,0.0,0.0,64,0.00,,---,0.01,VWS V14.01,2013-08-05 20:11:00,
2013-08-05 16:17:00,91.6,77.7,29.82,SW,224,0.0,0.0,64,0.00,,---,0.01,VWS V14.01,2013-08-05 20:17:00,
2013-08-05 16:22:00,91.6,76.7,29.81,WSW,254,0.0,1.0,62,0.00,,---,0.01,VWS V14.01,2013-08-05 20:22:00,
2013-08-05 16:27:00,91.4,76.6,29.81,WSW,254,0.0,1.0,62,0.00,,---,0.01,VWS V14.01,2013-08-05 20:27:00,
2013-08-05 16:30:00,91.2,76.4,29.81,SW,236,0.0,6.0,62,0.00,,---,0.01,VWS V14.01,2013-08-05 20:30:00,
2013-08-05 16:32:00,91.4,76.6,29.81,WSW,254,0.0,1.0,62,0.00,,---,0.01,VWS V14.01,2013-08-05 20:32:00,
2013-08-05 16:37:00,91.2,76.4,29.81,East,88,0.0,0.0,62,0.00,,---,0.01,VWS V14.01,2013-08-05 20:37:00,
2013-08-05 16:42:00,91.0,76.2,29.81,South,189,0.0,0.0,62,0.00,,---,0.01,VWS V14.01,2013-08-05 20:42:00,
2013-08-05 16:47:00,91.0,76.2,29.81,WSW,240,0.0,0.0,62,0.00,,---,0.01,VWS V14.01,2013-08-05 20:47:00,
2013-08-05 16:52:00,91.0,76.2,29.81,South,191,0.0,3.0,62,0.00,,---,0.01,VWS V14.01,2013-08-05 20:52:00,
2013-08-05 16:57:00,91.2,76.4,29.81,SW,236,0.0,3.0,62,0.00,,---,0.01,VWS V14.01,2013-08-05 20:57:00,
2013-08-05 17:00:00,91.8,77.4,29.82,SW,217,0.0,2.0,63,0.00,,---,0.01,VWS V14.01,2013-08-05 21:00:00,
2013-08-05 17:03:00,91.2,76.4,29.81,SW,236,0.0,3.0,62,0.00,,---,0.01,VWS V14.01,2013-08-05 21:03:00,
2013-08-05 17:08:00,91.2,76.4,29.79,South,176,0.0,0.0,62,0.00,,---,0.01,VWS V14.01,2013-08-05 21:08:00,
2013-08-05 17:13:00,91.4,76.6,29.79,WSW,247,0.0,3.0,62,0.00,,---,0.01,VWS V14.01,2013-08-05 21:13:00,
2013-08-05 17:18:00,91.4,76.6,29.79,SW,232,0.0,3.0,62,0.00,,---,0.01,VWS V14.01,2013-08-05 21:18:00,
2013-08-05 17:23:00,91.4,76.6,29.79,WSW,253,0.0,3.0,62,0.00,,---,0.01,VWS V14.01,2013-08-05 21:23:00,
2013-08-05 17:28:00,91.4,76.6,29.79,South,189,0.0,3.0,62,0.00,,---,0.01,VWS V14.01,2013-08-05 21:28:00,
2013-08-05 17:30:00,91.2,76.4,29.81,East,97,0.0,1.0,62,0.00,,---,0.01,VWS V14.01,2013-08-05 21:30:00,
2013-08-05 17:33:00,90.7,75.9,29.79,West,260,0.0,3.0,62,0.00,,---,0.01,VWS V14.01,2013-08-05 21:33:00,
2013-08-05 17:38:00,90.1,75.8,29.80,NNE,30,0.0,0.0,63,0.00,,---,0.01,VWS V14.01,2013-08-05 21:38:00,
2013-08-05 17:44:00,90.1,76.3,29.80,West,263,2.0,2.0,64,0.00,,---,0.01,VWS V14.01,2013-08-05 21:44:00,
2013-08-05 17:48:00,89.5,75.7,29.80,WSW,240,0.0,2.0,64,0.00,,---,0.01,VWS V14.01,2013-08-05 21:48:00,
2013-08-05 17:53:00,89.3,75.5,29.79,South,189,0.0,2.0,64,0.00,,---,0.01,VWS V14.01,2013-08-05 21:53:00,
2013-08-05 17:58:00,89.3,75.5,29.79,SW,217,0.0,2.0,64,0.00,,---,0.01,VWS V14.01,2013-08-05 21:58:00,
2013-08-05 18:00:00,91.2,76.4,29.79,SW,236,0.0,3.0,62,0.00,,---,0.01,VWS V14.01,2013-08-05 22:00:00,
2013-08-05 18:04:00,89.0,75.2,29.79,SW,224,0.0,2.0,64,0.00,,---,0.01,VWS V14.01,2013-08-05 22:04:00,
2013-08-05 18:09:00,88.8,75.1,29.81,WSW,240,0.0,0.0,64,0.00,,---,0.01,VWS V14.01,2013-08-05 22:09:00,
2013-08-05 18:14:00,88.8,75.1,29.81,WSW,248,0.0,0.0,64,0.00,,---,0.01,VWS V14.01,2013-08-05 22:14:00,
2013-08-05 18:19:00,88.4,76.1,29.81,WSW,248,0.0,0.0,67,0.00,,---,0.01,VWS V14.01,2013-08-05 22:19:00,
2013-08-05 18:24:00,88.2,75.9,29.82,South,186,0.0,0.0,67,0.00,,---,0.01,VWS V14.01,2013-08-05 22:24:00,
2013-08-05 18:29:00,88.2,75.9,29.82,SSW,195,0.0,0.0,67,0.00,,---,0.01,VWS V14.01,2013-08-05 22:29:00,
2013-08-05 18:30:00,90.7,75.9,29.80,SW,224,0.0,3.0,62,0.00,,---,0.01,VWS V14.01,2013-08-05 22:30:00,
2013-08-05 18:34:00,87.4,75.1,29.81,SSW,193,0.0,0.0,67,0.00,,---,0.01,VWS V14.01,2013-08-05 22:34:00,
2013-08-05 18:39:00,87.4,75.1,29.81,SSW,193,0.0,0.0,67,0.00,,---,0.01,VWS V14.01,2013-08-05 22:39:00,
2013-08-05 18:44:00,87.4,75.1,29.81,SSW,193,0.0,0.0,67,0.00,,---,0.01,VWS V14.01,2013-08-05 22:44:00,
2013-08-05 18:49:00,85.9,73.7,29.81,SSW,193,0.0,0.0,67,0.00,,---,0.01,VWS V14.01,2013-08-05 22:49:00,
2013-08-05 18:54:00,85.9,73.7,29.81,SSW,193,0.0,0.0,67,0.00,,---,0.01,VWS V14.01,2013-08-05 22:54:00,
2013-08-05 18:59:00,85.9,73.7,29.81,SSW,193,0.0,0.0,67,0.00,,---,0.01,VWS V14.01,2013-08-05 22:59:00,
2013-08-05 19:00:00,89.0,75.2,29.81,SW,224,0.0,2.0,64,0.00,,---,0.01,VWS V14.01,2013-08-05 23:00:00,
2013-08-05 19:04:00,83.8,71.7,29.83,West,280,0.0,2.0,67,0.00,,---,0.01,VWS V14.01,2013-08-05 23:04:00,
2013-08-05 19:09:00,83.2,74.1,29.83,NNE,24,0.0,0.0,74,0.00,,---,0.01,VWS V14.01,2013-08-05 23:09:00,
2013-08-05 19:14:00,82.6,73.5,29.83,NNE,24,0.0,0.0,74,0.00,,---,0.01,VWS V14.01,2013-08-05 23:14:00,
2013-08-05 19:19:00,82.0,73.3,29.84,ESE,109,0.0,0.0,75,0.00,,---,0.01,VWS V14.01,2013-08-05 23:19:00,
2013-08-05 19:24:00,81.4,73.5,29.84,ESE,109,0.0,0.0,77,0.00,,---,0.01,VWS V14.01,2013-08-05 23:24:00,
2013-08-05 19:30:00,81.2,73.7,29.84,ESE,109,0.0,0.0,78,0.00,,---,0.01,VWS V14.01,2013-08-05 23:30:00,
2013-08-05 19:35:00,80.9,73.4,29.84,ESE,107,0.0,0.0,78,0.00,,---,0.01,VWS V14.01,2013-08-05 23:35:00,
2013-08-05 19:40:00,80.7,73.6,29.84,ESE,107,0.0,0.0,79,0.00,,---,0.01,VWS V14.01,2013-08-05 23:40:00,
2013-08-05 19:45:00,80.5,73.4,29.84,ESE,107,0.0,0.0,79,0.00,,---,0.01,VWS V14.01,2013-08-05 23:45:00,
2013-08-05 19:50:00,80.5,73.8,29.84,ESE,107,0.0,0.0,80,0.00,,---,0.01,VWS V14.01,2013-08-05 23:50:00,
2013-08-05 19:55:00,80.3,73.6,29.84,ESE,107,0.0,0.0,80,0.00,,---,0.01,VWS V14.01,2013-08-05 23:55:00,
2013-08-05 20:00:00,80.1,73.4,29.84,ESE,107,0.0,0.0,80,0.00,,---,0.01,VWS V14.01,2013-08-06 00:00:00,
2013-08-05 20:05:00,79.9,73.2,29.84,ESE,107,0.0,0.0,80,0.00,,---,0.01,VWS V14.01,2013-08-06 00:05:00,
2013-08-05 20:10:00,79.8,74.2,29.84,ESE,107,0.0,0.0,83,0.00,,---,0.01,VWS V14.01,2013-08-06 00:10:00,
2013-08-05 20:16:00,79.6,74.0,29.84,ESE,107,0.0,0.0,83,0.00,,---,0.01,VWS V14.01,2013-08-06 00:16:00,
2013-08-05 20:21:00,79.6,74.0,29.84,ESE,107,0.0,0.0,83,0.00,,---,0.01,VWS V14.01,2013-08-06 00:21:00,
2013-08-05 20:26:00,79.4,73.8,29.84,ESE,107,0.0,0.0,83,0.00,,---,0.01,VWS V14.01,2013-08-06 00:26:00,
2013-08-05 20:30:00,80.9,73.4,29.84,ESE,107,0.0,0.0,78,0.00,,---,0.01,VWS V14.01,2013-08-06 00:30:00,
2013-08-05 20:31:00,79.4,74.2,29.84,ESE,107,0.0,0.0,84,0.00,,---,0.01,VWS V14.01,2013-08-06 00:31:00,
2013-08-05 20:37:00,79.2,73.9,29.83,ESE,107,0.0,0.0,84,0.00,,---,0.01,VWS V14.01,2013-08-06 00:37:00,
2013-08-05 20:42:00,78.8,74.3,29.83,ESE,107,0.0,0.0,86,0.00,,---,0.01,VWS V14.01,2013-08-06 00:42:00,
2013-08-05 20:47:00,78.6,74.1,29.83,ESE,107,0.0,0.0,86,0.00,,---,0.01,VWS V14.01,2013-08-06 00:47:00,
2013-08-05 20:52:00,78.5,74.0,29.85,SW,216,0.0,0.0,86,0.00,,---,0.01,VWS V14.01,2013-08-06 00:52:00,
2013-08-05 20:57:00,78.6,74.1,29.85,SW,216,0.0,0.0,86,0.00,,---,0.01,VWS V14.01,2013-08-06 00:57:00,
2013-08-05 21:00:00,79.9,73.2,29.84,ESE,107,0.0,0.0,80,0.00,,---,0.01,VWS V14.01,2013-08-06 01:00:00,
2013-08-05 21:02:00,78.6,74.4,29.85,SW,216,0.0,0.0,87,0.00,,---,0.01,VWS V14.01,2013-08-06 01:02:00,
2013-08-05 21:07:00,78.5,74.3,29.86,SW,216,0.0,0.0,87,0.00,,---,0.01,VWS V14.01,2013-08-06 01:07:00,
2013-08-05 21:12:00,78.3,74.8,29.86,SW,216,0.0,0.0,89,0.01,,---,0.02,VWS V14.01,2013-08-06 01:12:00,
2013-08-05 21:17:00,78.3,75.1,29.86,SW,216,0.0,0.0,90,0.01,,---,0.02,VWS V14.01,2013-08-06 01:17:00,
2013-08-05 21:22:00,78.1,74.9,29.85,SW,216,0.0,0.0,90,0.01,,---,0.02,VWS V14.01,2013-08-06 01:22:00,
2013-08-05 21:28:00,78.1,75.3,29.85,SW,216,0.0,0.0,91,0.01,,---,0.02,VWS V14.01,2013-08-06 01:28:00,
2013-08-05 21:30:00,79.2,73.9,29.83,ESE,107,0.0,0.0,84,0.00,,---,0.01,VWS V14.01,2013-08-06 01:30:00,
2013-08-05 21:33:00,77.6,74.8,29.85,SW,216,0.0,0.0,91,0.01,,---,0.02,VWS V14.01,2013-08-06 01:33:00,
2013-08-05 21:38:00,77.4,74.9,29.85,SW,216,0.0,0.0,92,0.01,,---,0.02,VWS V14.01,2013-08-06 01:38:00,
2013-08-05 21:43:00,77.2,74.7,29.85,SW,216,0.0,0.0,92,0.01,,---,0.02,VWS V14.01,2013-08-06 01:43:00,
2013-08-05 21:48:00,77.0,74.8,29.85,SW,216,0.0,0.0,93,0.01,,---,0.02,VWS V14.01,2013-08-06 01:48:00,
2013-08-05 21:53:00,76.8,74.6,29.86,SW,216,0.0,0.0,93,0.01,,---,0.02,VWS V14.01,2013-08-06 01:53:00,
2013-08-05 21:58:00,76.7,74.8,29.86,SW,216,0.0,0.0,94,0.01,,---,0.02,VWS V14.01,2013-08-06 01:58:00,
2013-08-05 22:00:00,78.5,74.3,29.86,SW,216,0.0,0.0,87,0.00,,---,0.01,VWS V14.01,2013-08-06 02:00:00,
2013-08-05 22:03:00,76.7,75.2,29.86,SW,216,0.0,0.0,95,0.01,,---,0.02,VWS V14.01,2013-08-06 02:03:00,
2013-08-05 22:08:00,76.5,75.0,29.87,SW,216,0.0,0.0,95,0.01,,---,0.02,VWS V14.01,2013-08-06 02:08:00,
2013-08-05 22:13:00,76.5,75.3,29.87,SW,216,0.0,0.0,96,0.01,,---,0.02,VWS V14.01,2013-08-06 02:13:00,
2013-08-05 22:18:00,76.3,75.1,29.87,SW,216,0.0,0.0,96,0.01,,---,0.02,VWS V14.01,2013-08-06 02:18:00,
2013-08-05 22:24:00,76.3,75.1,29.87,SW,216,0.0,0.0,96,0.01,,---,0.02,VWS V14.01,2013-08-06 02:24:00,
2013-08-05 22:29:00,76.1,74.9,29.87,SW,216,0.0,0.0,96,0.01,,---,0.02,VWS V14.01,2013-08-06 02:29:00,
2013-08-05 22:30:00,77.4,74.6,29.85,SW,216,0.0,0.0,91,0.01,,---,0.02,VWS V14.01,2013-08-06 02:30:00,
2013-08-05 22:34:00,76.0,74.8,29.87,SW,216,0.0,0.0,96,0.01,,---,0.02,VWS V14.01,2013-08-06 02:34:00,
2013-08-05 22:39:00,75.8,74.9,29.88,SW,216,0.0,0.0,97,0.00,,---,0.02,VWS V14.01,2013-08-06 02:39:00,
2013-08-05 22:44:00,75.8,74.9,29.88,SW,216,0.0,0.0,97,0.00,,---,0.02,VWS V14.01,2013-08-06 02:44:00,
2013-08-05 22:50:00,75.6,75.0,29.88,SW,216,0.0,0.0,98,0.00,,---,0.02,VWS V14.01,2013-08-06 02:50:00,
2013-08-05 22:55:00,75.6,75.0,29.88,SW,216,0.0,0.0,98,0.00,,---,0.02,VWS V14.01,2013-08-06 02:55:00,
2013-08-05 23:00:00,75.4,75.1,29.88,SW,216,0.0,0.0,99,0.00,,---,0.02,VWS V14.01,2013-08-06 03:00:00,
2013-08-05 23:05:00,75.4,75.1,29.88,SW,216,0.0,0.0,99,0.00,,---,0.02,VWS V14.01,2013-08-06 03:05:00,
2013-08-05 23:10:00,75.3,75.0,29.88,SW,216,0.0,0.0,99,0.00,,---,0.02,VWS V14.01,2013-08-06 03:10:00,
2013-08-05 23:15:00,75.1,74.8,29.88,SW,216,0.0,0.0,99,0.00,,---,0.02,VWS V14.01,2013-08-06 03:15:00,
2013-08-05 23:20:00,75.1,74.8,29.88,SW,216,0.0,0.0,99,0.00,,---,0.02,VWS V14.01,2013-08-06 03:20:00,
2013-08-05 23:25:00,75.1,75.1,29.88,SW,216,0.0,0.0,100,0.00,,---,0.02,VWS V14.01,2013-08-06 03:25:00,
2013-08-05 23:30:00,75.1,75.1,29.88,SW,216,0.0,0.0,100,0.00,,---,0.02,VWS V14.01,2013-08-06 03:30:00,
2013-08-05 23:36:00,75.1,75.1,29.87,SW,216,0.0,0.0,100,0.00,,---,0.02,VWS V14.01,2013-08-06 03:36:00,
2013-08-05 23:41:00,74.9,74.9,29.87,SW,216,0.0,0.0,100,0.00,,---,0.02,VWS V14.01,2013-08-06 03:41:00,
2013-08-05 23:46:00,74.9,74.9,29.87,SW,216,0.0,0.0,100,0.00,,---,0.02,VWS V14.01,2013-08-06 03:46:00,
2013-08-05 23:51:00,74.7,74.7,29.87,SW,216,0.0,0.0,100,0.00,,---,0.02,VWS V14.01,2013-08-06 03:51:00,
2013-08-05 23:56:00,74.7,74.7,29.87,SW,216,0.0,0.0,100,0.00,,---,0.02,VWS V14.01,2013-08-06 03:56:00,